Time;durP1;ratioP1;P1;durP2;ratioP2;P2;SDS_P1;SDS_P2;PMS_P1;PMS_P2;Temp;Humidity;BMP_temperature;BMP_pressure;BME280_temperature;BME280_humidity;BME280_pressure;Samples;Min_cycle;Max_cycle;Signal;HPM_P1;HPM_P2
2023/08/09 04:05:54;;;;;;;2.90;1.47;;;17.30;99.90;;;;;;5389369;22;20989;-60
2023/08/09 04:08:21;;;;;;;1.43;1.33;;;17.20;99.90;;;;;;4975226;28;20435;-59
2023/08/09 04:10:47;;;;;;;1.43;1.33;;;17.20;99.90;;;;;;4975404;28;20210;-60
2023/08/09 04:13:13;;;;;;;1.13;1.03;;;17.30;99.90;;;;;;4975469;28;20962;-60
2023/08/09 04:15:38;;;;;;;1.40;1.30;;;17.30;99.90;;;;;;4957675;28;20219;-60
2023/08/09 04:18:04;;;;;;;1.97;1.77;;;17.30;99.90;;;;;;4975298;28;20224;-60
2023/08/09 04:20:31;;;;;;;2.43;2.23;;;17.30;99.90;;;;;;4975440;28;20200;-60
2023/08/09 04:22:58;;;;;;;1.50;1.13;;;17.30;99.90;;;;;;4975269;28;20183;-60
2023/08/09 04:25:23;;;;;;;1.40;1.10;;;17.30;99.90;;;;;;4974581;28;20500;-60
2023/08/09 04:27:49;;;;;;;1.20;0.97;;;17.30;99.90;;;;;;4975016;28;20427;-60
2023/08/09 04:30:15;;;;;;;4.13;3.47;;;17.30;99.90;;;;;;4957920;28;20182;-60
2023/08/09 04:32:40;;;;;;;1.63;1.50;;;17.30;99.90;;;;;;4975158;28;20175;-60
2023/08/09 04:35:09;;;;;;;2.63;1.30;;;17.40;99.90;;;;;;4973887;28;20434;-60
2023/08/09 04:37:35;;;;;;;0.93;0.93;;;17.40;99.90;;;;;;4975103;28;20550;-60
2023/08/09 04:40:00;;;;;;;1.10;1.10;;;17.40;99.90;;;;;;4974721;28;20398;-59
2023/08/09 04:42:27;;;;;;;0.80;0.80;;;17.40;99.90;;;;;;4974858;28;20177;-59
2023/08/09 04:44:53;;;;;;;0.93;0.87;;;17.40;99.90;;;;;;4974459;28;20197;-59
2023/08/09 04:47:18;;;;;;;1.20;1.07;;;17.40;99.90;;;;;;4975025;28;20465;-58
2023/08/09 04:49:45;;;;;;;1.33;1.23;;;17.40;99.90;;;;;;4974800;28;20814;-60
2023/08/09 04:52:10;;;;;;;2.30;0.80;;;17.50;99.90;;;;;;4974802;28;20255;-60
2023/08/09 04:54:36;;;;;;;0.97;0.97;;;17.50;99.90;;;;;;4974353;28;20434;-60
2023/08/09 04:57:02;;;;;;;1.60;1.50;;;17.60;99.90;;;;;;4974618;28;20632;-60
2023/08/09 04:59:28;;;;;;;0.90;0.90;;;17.70;99.90;;;;;;4974853;28;20591;-60
2023/08/09 05:01:53;;;;;;;0.87;0.83;;;17.70;99.90;;;;;;4974690;28;20393;-60
2023/08/09 05:04:19;;;;;;;1.17;1.00;;;17.80;99.90;;;;;;4974340;28;20190;-60
2023/08/09 05:06:44;;;;;;;1.10;1.10;;;17.80;99.90;;;;;;4974344;28;20213;-60
2023/08/09 05:09:10;;;;;;;3.07;0.90;;;17.90;99.90;;;;;;4974597;28;20175;-60
2023/08/09 05:11:36;;;;;;;0.97;0.80;;;17.90;99.90;;;;;;4974558;28;20534;-60
2023/08/09 05:14:01;;;;;;;1.20;1.10;;;17.90;99.90;;;;;;4974151;28;20208;-60
2023/08/09 05:16:27;;;;;;;1.40;1.30;;;17.90;99.90;;;;;;4977874;28;20202;-60
2023/08/09 05:18:53;;;;;;;0.83;0.83;;;17.90;99.90;;;;;;4978746;28;20191;-60
2023/08/09 05:21:19;;;;;;;1.80;1.20;;;17.90;99.90;;;;;;4978548;28;20204;-60
2023/08/09 05:23:44;;;;;;;1.47;1.20;;;17.90;99.90;;;;;;4978187;28;20412;-60
2023/08/09 05:26:10;;;;;;;1.30;1.20;;;17.90;99.90;;;;;;4978333;28;20442;-60
2023/08/09 05:28:36;;;;;;;0.90;0.90;;;17.90;99.90;;;;;;4978730;28;20176;-60
2023/08/09 05:31:01;;;;;;;0.90;0.90;;;18.00;99.90;;;;;;4978306;28;20259;-60
2023/08/09 05:33:27;;;;;;;1.33;1.23;;;18.00;99.90;;;;;;4977861;28;20245;-60
2023/08/09 05:35:52;;;;;;;1.63;1.53;;;18.00;99.90;;;;;;4978164;28;20287;-60
2023/08/09 05:38:18;;;;;;;1.40;1.30;;;18.00;99.90;;;;;;4978230;28;20175;-59
2023/08/09 05:40:43;;;;;;;1.07;1.00;;;18.00;99.90;;;;;;4978677;28;20176;-59
2023/08/09 05:43:09;;;;;;;1.60;1.10;;;18.00;99.90;;;;;;4978256;28;20180;-60
2023/08/09 05:45:35;;;;;;;0.80;0.80;;;18.10;99.90;;;;;;4977716;28;20196;-60
2023/08/09 05:48:00;;;;;;;1.50;1.40;;;18.00;99.90;;;;;;4977999;28;20578;-59
2023/08/09 05:50:26;;;;;;;1.10;0.97;;;18.10;99.90;;;;;;4978248;28;20172;-60
2023/08/09 05:52:52;;;;;;;2.07;1.40;;;18.10;99.90;;;;;;4977972;28;20231;-60
2023/08/09 05:55:17;;;;;;;0.93;0.93;;;18.20;99.90;;;;;;4977671;28;20658;-59
2023/08/09 05:57:43;;;;;;;1.23;1.10;;;18.20;99.90;;;;;;4977810;28;20180;-59
2023/08/09 06:00:15;;;;;;;0.80;0.77;;;18.20;99.90;;;;;;4978307;28;20192;-59
2023/08/09 06:02:44;;;;;;;0.70;0.70;;;18.30;99.90;;;;;;4977771;28;20486;-59
2023/08/09 06:05:25;;;;;;;0.93;0.83;;;18.30;99.90;;;;;;4977238;28;20438;-59
2023/08/09 06:07:52;;;;;;;2.53;1.70;;;18.30;99.90;;;;;;4977574;28;20761;-59
2023/08/09 06:10:19;;;;;;;1.30;1.20;;;18.40;99.90;;;;;;4977518;28;20906;-60
2023/08/09 06:12:45;;;;;;;0.80;0.80;;;18.40;99.90;;;;;;4977491;28;20447;-59
2023/08/09 06:15:11;;;;;;;1.40;1.17;;;18.40;99.90;;;;;;4977095;28;20488;-59
2023/08/09 06:17:37;;;;;;;1.30;1.20;;;18.50;99.90;;;;;;4977550;28;20224;-60
2023/08/09 06:20:04;;;;;;;0.90;0.90;;;18.50;99.90;;;;;;4977269;28;20448;-60
2023/08/09 06:22:30;;;;;;;0.80;0.80;;;18.60;99.90;;;;;;4977544;28;20188;-61
2023/08/09 06:24:56;;;;;;;1.17;0.90;;;18.60;99.90;;;;;;4976896;28;20435;-61
2023/08/09 06:27:22;;;;;;;0.77;0.77;;;18.70;99.90;;;;;;4976712;28;20497;-61
2023/08/09 06:29:47;;;;;;;1.40;1.30;;;18.80;99.90;;;;;;4977296;28;20204;-61
2023/08/09 06:32:13;;;;;;;1.40;0.90;;;18.80;99.90;;;;;;4977241;28;20176;-60
2023/08/09 06:34:38;;;;;;;2.10;1.10;;;18.90;99.90;;;;;;4977182;28;20218;-60
2023/08/09 06:37:04;;;;;;;1.83;1.40;;;19.00;99.90;;;;;;4977226;28;20259;-60
2023/08/09 06:39:30;;;;;;;1.53;1.00;;;19.10;99.90;;;;;;4976987;28;20243;-60
2023/08/09 06:41:55;;;;;;;1.40;1.23;;;19.20;99.90;;;;;;4977458;28;20185;-60
2023/08/09 06:44:21;;;;;;;3.30;1.13;;;19.30;99.90;;;;;;4976505;28;20180;-60
2023/08/09 06:46:47;;;;;;;1.40;1.30;;;19.40;99.90;;;;;;4976922;28;20269;-60
2023/08/09 06:49:12;;;;;;;1.23;1.13;;;19.50;99.90;;;;;;4976666;28;20598;-60
2023/08/09 06:51:38;;;;;;;0.87;0.87;;;19.50;99.90;;;;;;4976751;28;20378;-60
2023/08/09 06:54:04;;;;;;;1.17;1.07;;;19.60;99.90;;;;;;4976391;28;20223;-60
2023/08/09 06:56:30;;;;;;;0.80;0.80;;;19.60;99.90;;;;;;4976945;28;20207;-60
2023/08/09 06:58:55;;;;;;;1.20;1.10;;;19.70;99.90;;;;;;4976782;28;20399;-60
2023/08/09 07:01:21;;;;;;;0.77;0.77;;;19.70;99.90;;;;;;4976653;28;20742;-60
2023/08/09 07:03:50;;;;;;;1.23;1.07;;;19.70;99.90;;;;;;4976401;28;20673;-60
2023/08/09 07:06:15;;;;;;;1.07;1.00;;;19.70;99.90;;;;;;4976167;28;20224;-60
2023/08/09 07:08:41;;;;;;;1.43;1.33;;;19.70;99.90;;;;;;4976592;28;20419;-60
2023/08/09 07:11:08;;;;;;;0.87;0.87;;;19.70;99.90;;;;;;4976567;28;20203;-60
2023/08/09 07:13:33;;;;;;;1.33;1.10;;;19.80;99.90;;;;;;4976232;28;20374;-60
2023/08/09 07:15:59;;;;;;;2.13;0.70;;;19.80;99.90;;;;;;4976229;28;20547;-60
2023/08/09 07:18:25;;;;;;;1.30;1.20;;;19.80;99.90;;;;;;4976396;28;20230;-60
2023/08/09 07:20:51;;;;;;;1.23;1.00;;;19.70;99.90;;;;;;4976445;28;20575;-60
2023/08/09 07:23:16;;;;;;;0.80;0.80;;;19.70;99.90;;;;;;4976432;28;20450;-61
2023/08/09 07:25:42;;;;;;;2.60;0.70;;;19.70;99.90;;;;;;4976242;28;20236;-60
2023/08/09 07:28:07;;;;;;;0.80;0.80;;;19.80;99.90;;;;;;4976201;28;20208;-60
2023/08/09 07:30:34;;;;;;;1.00;0.83;;;19.80;99.90;;;;;;4976259;28;20176;-60
2023/08/09 07:32:59;;;;;;;1.00;1.00;;;19.90;99.90;;;;;;4976222;28;20172;-60
2023/08/09 07:35:25;;;;;;;0.80;0.80;;;20.10;99.90;;;;;;4975835;28;20489;-59
2023/08/09 07:37:50;;;;;;;1.13;0.87;;;20.30;99.90;;;;;;4975507;28;20203;-60
2023/08/09 07:40:16;;;;;;;0.87;0.87;;;20.60;99.90;;;;;;4975370;28;20180;-60
2023/08/09 07:42:42;;;;;;;0.80;0.77;;;20.80;99.90;;;;;;4976029;28;20656;-61
2023/08/09 07:45:12;;;;;;;0.70;0.70;;;21.00;99.90;;;;;;4975435;28;20346;-61
2023/08/09 07:47:39;;;;;;;0.87;0.87;;;21.20;99.90;;;;;;4975810;28;20487;-61
2023/08/09 07:50:06;;;;;;;1.03;1.03;;;21.40;99.90;;;;;;4975941;28;20406;-61
2023/08/09 07:52:32;;;;;;;0.70;0.70;;;21.50;99.90;;;;;;4975884;28;20391;-60
2023/08/09 07:54:58;;;;;;;0.87;0.87;;;21.60;99.90;;;;;;4975392;28;20518;-60
2023/08/09 07:57:24;;;;;;;1.60;0.87;;;21.60;99.90;;;;;;4975708;28;20498;-60
2023/08/09 07:59:50;;;;;;;1.00;1.00;;;21.50;99.90;;;;;;4975584;28;20458;-60
2023/08/09 08:02:16;;;;;;;0.83;0.83;;;21.50;99.90;;;;;;4975392;28;20212;-60
2023/08/09 08:04:41;;;;;;;1.27;1.10;;;21.50;99.90;;;;;;4958129;28;20469;-60
2023/08/09 08:07:09;;;;;;;0.90;0.90;;;21.40;99.90;;;;;;4975734;28;20223;-60
2023/08/09 08:09:36;;;;;;;0.77;0.77;;;21.30;99.90;;;;;;4975851;28;20184;-60
2023/08/09 08:12:04;;;;;;;0.87;0.87;;;21.20;99.90;;;;;;4977164;28;20523;-59
2023/08/09 08:14:29;;;;;;;0.83;0.57;;;21.10;99.90;;;;;;4976305;28;20446;-60
2023/08/09 08:16:55;;;;;;;2.20;1.00;;;21.20;99.90;;;;;;4975254;28;20775;-60
2023/08/09 08:19:20;;;;;;;0.70;0.70;;;21.20;99.90;;;;;;4975209;28;20180;-60
2023/08/09 08:21:46;;;;;;;0.97;0.97;;;21.30;99.90;;;;;;4975234;28;20182;-61
2023/08/09 08:24:11;;;;;;;1.20;0.93;;;21.30;99.90;;;;;;4974891;28;20267;-61
2023/08/09 08:26:38;;;;;;;0.90;0.90;;;21.30;99.90;;;;;;4975206;28;20204;-60
2023/08/09 08:29:03;;;;;;;0.80;0.80;;;21.30;99.90;;;;;;4975295;28;20179;-60
2023/08/09 08:31:29;;;;;;;0.80;0.67;;;21.20;99.90;;;;;;4975132;28;20380;-60
2023/08/09 08:33:54;;;;;;;1.27;0.60;;;21.10;99.90;;;;;;4974917;28;20267;-60
2023/08/09 08:36:22;;;;;;;1.70;1.30;;;20.90;99.90;;;;;;4974931;28;20261;-60
2023/08/09 08:38:48;;;;;;;0.70;0.70;;;20.80;99.90;;;;;;4975441;28;20579;-59
2023/08/09 08:41:14;;;;;;;1.90;0.70;;;20.70;99.90;;;;;;4975022;28;20516;-60
2023/08/09 08:43:40;;;;;;;1.00;0.67;;;20.60;99.90;;;;;;4974616;28;20445;-60
2023/08/09 08:46:05;;;;;;;1.43;1.20;;;20.50;99.90;;;;;;4974712;28;20210;-60
2023/08/09 08:48:33;;;;;;;1.73;1.00;;;20.40;99.90;;;;;;4974821;28;20251;-60
2023/08/09 08:51:02;;;;;;;1.27;0.90;;;20.30;99.90;;;;;;4974491;28;20254;-60
2023/08/09 08:53:28;;;;;;;1.10;1.00;;;20.20;99.90;;;;;;4974494;28;20481;-60
2023/08/09 08:55:55;;;;;;;0.93;0.70;;;20.20;99.90;;;;;;4974530;28;20506;-59
2023/08/09 08:58:21;;;;;;;1.43;1.10;;;20.20;99.90;;;;;;4974715;28;20412;-60
2023/08/09 09:00:46;;;;;;;1.20;1.10;;;20.20;99.90;;;;;;4974663;28;20759;-60
2023/08/09 09:03:14;;;;;;;0.80;0.80;;;20.30;99.90;;;;;;4974637;28;20251;-59
2023/08/09 09:05:39;;;;;;;0.73;0.73;;;20.40;99.90;;;;;;4956679;28;20682;-60
2023/08/09 09:08:05;;;;;;;1.00;1.00;;;20.50;99.90;;;;;;4974713;28;20410;-60
2023/08/09 09:10:31;;;;;;;0.73;0.73;;;20.70;99.90;;;;;;4974756;28;20173;-60
2023/08/09 09:12:56;;;;;;;1.03;0.70;;;20.90;99.90;;;;;;4974675;28;20378;-60
2023/08/09 09:15:23;;;;;;;1.13;1.03;;;21.00;99.90;;;;;;4974129;28;20201;-60
2023/08/09 09:17:49;;;;;;;0.80;0.80;;;21.00;99.90;;;;;;4974739;28;20575;-60
2023/08/09 09:20:29;;;;;;;0.67;0.67;;;21.00;99.90;;;;;;4974643;28;20394;-59
2023/08/09 09:22:55;;;;;;;1.20;1.10;;;21.10;99.90;;;;;;4974680;28;20382;-60
2023/08/09 09:25:22;;;;;;;0.87;0.87;;;21.10;99.90;;;;;;4973955;28;20417;-59
2023/08/09 09:27:52;;;;;;;1.00;1.00;;;21.00;99.90;;;;;;4974517;28;20492;-60
2023/08/09 09:30:24;;;;;;;1.20;1.10;;;21.00;99.90;;;;;;4974642;28;20427;-59
2023/08/09 09:32:52;;;;;;;1.20;1.10;;;20.90;99.90;;;;;;4975726;28;20792;-60
2023/08/09 09:35:22;;;;;;;0.93;0.90;;;20.80;99.90;;;;;;4974348;28;20409;-60
2023/08/09 09:37:48;;;;;;;3.30;1.30;;;20.80;99.90;;;;;;4974386;28;20461;-60
2023/08/09 09:40:32;;;;;;;1.37;1.10;;;20.80;99.90;;;;;;4975543;28;20390;-60
2023/08/09 09:42:59;;;;;;;0.93;0.90;;;20.70;99.90;;;;;;4974680;28;20404;-60
2023/08/09 09:45:27;;;;;;;1.07;1.07;;;20.60;99.90;;;;;;4974277;28;20474;-60
2023/08/09 09:47:54;;;;;;;0.97;0.97;;;20.60;99.90;;;;;;4974497;28;20490;-63
2023/08/09 09:50:25;;;;;;;0.90;0.90;;;20.60;99.90;;;;;;4976169;28;20390;-59
2023/08/09 09:52:52;;;;;;;1.20;1.20;;;20.60;99.90;;;;;;4975247;28;20418;-59
2023/08/09 09:55:20;;;;;;;0.73;0.73;;;20.70;99.90;;;;;;4974069;28;20467;-61
2023/08/09 09:57:47;;;;;;;0.77;0.77;;;20.80;99.90;;;;;;4974670;28;20423;-60
2023/08/09 10:00:15;;;;;;;1.10;1.10;;;21.00;99.90;;;;;;4974483;28;20415;-60
2023/08/09 10:02:47;;;;;;;1.00;0.97;;;21.20;99.90;;;;;;4976185;28;20435;-60
2023/08/09 10:05:16;;;;;;;0.60;0.60;;;21.30;99.90;;;;;;4977572;28;20493;-60
2023/08/09 10:07:43;;;;;;;1.10;1.10;;;21.50;99.90;;;;;;4977627;28;20537;-60
2023/08/09 10:10:09;;;;;;;0.80;0.80;;;21.60;99.90;;;;;;4977777;28;20808;-60
2023/08/09 10:12:36;;;;;;;1.00;1.00;;;21.70;99.90;;;;;;4960679;28;20453;-59
2023/08/09 10:15:04;;;;;;;0.97;0.97;;;21.70;99.90;;;;;;4977482;28;21006;-59
2023/08/09 10:17:32;;;;;;;0.90;0.90;;;21.80;99.90;;;;;;4977455;28;20894;-59
2023/08/09 10:20:00;;;;;;;0.90;0.90;;;21.90;99.90;;;;;;4977591;28;20417;-61
2023/08/09 10:22:26;;;;;;;1.40;1.30;;;22.00;99.90;;;;;;4977335;28;20396;-60
2023/08/09 10:24:56;;;;;;;1.20;1.10;;;22.00;99.90;;;;;;4976948;28;20435;-60
2023/08/09 10:27:53;;;;;;;0.87;0.87;;;21.90;99.90;;;;;;4977200;28;20436;-60
2023/08/09 10:30:28;;;;;;;0.90;0.90;;;21.80;99.90;;;;;;4976101;28;20934;-60
2023/08/09 10:32:56;;;;;;;1.03;1.03;;;21.70;99.90;;;;;;4977500;28;20460;-60
2023/08/09 10:35:44;;;;;;;1.30;1.20;;;21.50;99.90;;;;;;4977111;28;20487;-59
2023/08/09 10:38:16;;;;;;;1.03;0.80;;;21.30;99.90;;;;;;4978187;28;20418;-60
2023/08/09 10:40:43;;;;;;;1.33;1.03;;;21.20;99.90;;;;;;4977194;28;20510;-60
2023/08/09 10:43:20;;;;;;;1.40;1.30;;;21.10;99.90;;;;;;4977959;28;20842;-60
2023/08/09 10:45:47;;;;;;;0.83;0.83;;;21.00;99.90;;;;;;4977082;28;20514;-59
2023/08/09 10:48:30;;;;;;;1.10;0.83;;;20.80;99.90;;;;;;4977117;28;20753;-60
2023/08/09 10:51:08;;;;;;;1.43;1.07;;;20.70;99.90;;;;;;4973821;28;20465;-59
2023/08/09 10:53:57;;;;;;;3.80;1.60;;;20.60;99.90;;;;;;4976636;28;20722;-62
2023/08/09 10:56:37;;;;;;;1.10;1.10;;;20.50;99.90;;;;;;4976703;28;20406;-59
2023/08/09 10:59:07;;;;;;;0.90;0.90;;;20.50;99.90;;;;;;4976828;28;20412;-59
2023/08/09 11:01:34;;;;;;;0.67;0.67;;;20.60;99.90;;;;;;4977552;28;20425;-60
2023/08/09 11:04:03;;;;;;;0.73;0.73;;;20.80;99.90;;;;;;4976923;28;20453;-60
2023/08/09 11:06:49;;;;;;;0.90;0.80;;;20.90;99.90;;;;;;4976867;28;20448;-60
2023/08/09 11:09:23;;;;;;;1.20;1.10;;;21.00;99.90;;;;;;4976804;28;20490;-60
2023/08/09 11:11:50;;;;;;;1.43;1.33;;;21.00;99.90;;;;;;4976690;28;20790;-60
2023/08/09 11:14:21;;;;;;;1.60;1.50;;;21.20;99.90;;;;;;4976327;28;20410;-59
2023/08/09 11:16:48;;;;;;;1.67;0.87;;;21.20;99.90;;;;;;4982890;28;20405;-60
2023/08/09 11:19:15;;;;;;;0.90;0.73;;;21.40;99.90;;;;;;4986205;28;20407;-60
2023/08/09 11:21:44;;;;;;;0.90;0.90;;;21.50;99.90;;;;;;4984584;28;20416;-60
2023/08/09 11:24:11;;;;;;;1.17;1.17;;;21.70;99.90;;;;;;4979792;28;20401;-60
2023/08/09 11:26:44;;;;;;;2.37;1.17;;;22.00;99.90;;;;;;4976860;28;20518;-60
2023/08/09 11:29:10;;;;;;;1.00;1.00;;;22.30;99.90;;;;;;4976781;28;20815;-60
2023/08/09 11:31:41;;;;;;;1.13;1.03;;;22.70;99.90;;;;;;4976294;28;20897;-60
2023/08/09 11:34:07;;;;;;;2.20;0.90;;;23.00;99.90;;;;;;4975823;28;20441;-59
2023/08/09 11:36:33;;;;;;;0.83;0.83;;;23.30;99.90;;;;;;4976009;28;20482;-60
2023/08/09 11:38:59;;;;;;;0.97;0.97;;;23.50;99.90;;;;;;4975960;28;20417;-60
2023/08/09 11:41:26;;;;;;;1.27;1.17;;;23.60;99.90;;;;;;4976383;28;20736;-60
2023/08/09 11:43:52;;;;;;;1.10;0.97;;;23.60;99.90;;;;;;4976555;28;20409;-60
2023/08/09 11:46:22;;;;;;;1.70;1.60;;;23.70;99.90;;;;;;4976579;28;20463;-60
2023/08/09 11:48:51;;;;;;;1.10;1.10;;;23.90;99.90;;;;;;4975981;28;20419;-60
2023/08/09 11:51:19;;;;;;;0.57;0.57;;;24.00;99.90;;;;;;4975752;28;20454;-60
2023/08/09 11:53:48;;;;;;;1.70;1.27;;;24.20;99.90;;;;;;4975561;28;20415;-60
2023/08/09 11:56:18;;;;;;;1.30;1.20;;;24.40;99.90;;;;;;4975666;28;20405;-60
2023/08/09 11:58:45;;;;;;;1.10;1.10;;;24.70;99.90;;;;;;4975807;28;20434;-61
2023/08/09 12:01:34;;;;;;;1.07;0.90;;;25.10;99.90;;;;;;4975635;28;20459;-58
2023/08/09 12:04:04;;;;;;;2.70;1.37;;;25.40;99.60;;;;;;4972795;28;20767;-60
2023/08/09 12:06:36;;;;;;;1.63;1.53;;;25.60;99.20;;;;;;4975350;28;20529;-60
2023/08/09 12:09:36;;;;;;;1.17;1.17;;;25.90;99.70;;;;;;4975483;28;20896;-60
2023/08/09 12:12:17;;;;;;;0.70;0.70;;;26.00;98.90;;;;;;4975118;28;20374;-60
2023/08/09 12:14:52;;;;;;;0.90;0.90;;;26.00;98.00;;;;;;4975035;28;20416;-60
2023/08/09 12:17:20;;;;;;;1.10;1.00;;;25.90;97.40;;;;;;4975440;28;20428;-60
2023/08/09 12:19:46;;;;;;;1.03;1.00;;;25.60;97.30;;;;;;4975319;28;20404;-60
2023/08/09 12:22:12;;;;;;;0.90;0.90;;;25.30;96.90;;;;;;4975337;28;20456;-60
2023/08/09 12:24:37;;;;;;;0.90;0.90;;;25.10;96.80;;;;;;4974203;28;20194;-60
2023/08/09 12:27:03;;;;;;;0.97;0.87;;;24.90;97.10;;;;;;4974936;28;20559;-60
2023/08/09 12:29:30;;;;;;;1.00;1.00;;;24.80;97.50;;;;;;4975216;28;20542;-60
2023/08/09 12:31:55;;;;;;;1.53;1.43;;;24.80;98.10;;;;;;4975083;28;20389;-60
2023/08/09 12:34:21;;;;;;;2.50;1.43;;;24.80;98.10;;;;;;4974714;28;20425;-60
2023/08/09 12:36:47;;;;;;;1.23;1.07;;;25.00;98.20;;;;;;4975107;28;20174;-60
2023/08/09 12:39:14;;;;;;;1.10;1.10;;;25.20;98.00;;;;;;4974957;28;20630;-60
2023/08/09 12:41:40;;;;;;;1.07;0.80;;;25.30;97.50;;;;;;4974864;28;20179;-60
2023/08/09 12:44:07;;;;;;;1.23;1.13;;;25.30;97.50;;;;;;4975065;28;20756;-60
2023/08/09 12:46:36;;;;;;;1.00;1.00;;;25.30;96.70;;;;;;4974715;28;20441;-60
2023/08/09 12:49:02;;;;;;;0.80;0.80;;;25.20;96.70;;;;;;4974971;28;20481;-60
2023/08/09 12:51:28;;;;;;;1.17;0.77;;;25.10;97.10;;;;;;4974879;28;20414;-60
2023/08/09 12:53:54;;;;;;;0.90;0.90;;;25.00;97.00;;;;;;4974581;28;20754;-60
2023/08/09 12:56:20;;;;;;;1.13;1.10;;;24.80;96.50;;;;;;4974798;28;20206;-60
2023/08/09 12:58:45;;;;;;;1.07;1.07;;;24.80;97.00;;;;;;4974703;28;20869;-60
2023/08/09 13:01:12;;;;;;;0.80;0.80;;;24.90;97.10;;;;;;4957466;28;20186;-60
2023/08/09 13:03:37;;;;;;;3.17;0.97;;;25.10;97.30;;;;;;4974339;28;20713;-60
2023/08/09 13:06:04;;;;;;;0.93;0.93;;;25.20;97.40;;;;;;4974185;28;20444;-60
2023/08/09 13:08:30;;;;;;;1.90;1.80;;;25.30;97.40;;;;;;4957382;28;20539;-60
2023/08/09 13:10:57;;;;;;;2.00;1.13;;;25.40;97.60;;;;;;4974699;28;20770;-60
2023/08/09 13:13:22;;;;;;;2.13;1.00;;;25.60;97.00;;;;;;4974336;28;20389;-60
2023/08/09 13:15:48;;;;;;;1.50;1.40;;;25.50;96.40;;;;;;4974524;28;20489;-60
2023/08/09 13:18:14;;;;;;;1.10;0.90;;;25.50;96.80;;;;;;4974651;28;20175;-59
2023/08/09 13:20:40;;;;;;;1.30;1.20;;;25.30;96.30;;;;;;4974525;28;20479;-60
2023/08/09 13:23:07;;;;;;;0.97;0.97;;;25.10;96.90;;;;;;4974376;28;20182;-60
2023/08/09 13:25:34;;;;;;;1.00;1.00;;;25.10;96.80;;;;;;4974242;28;20637;-59
2023/08/09 13:28:03;;;;;;;1.50;0.90;;;25.00;96.40;;;;;;4974314;28;20439;-59
2023/08/09 13:30:28;;;;;;;0.70;0.70;;;25.00;96.80;;;;;;4974461;28;20407;-59
2023/08/09 13:32:55;;;;;;;0.87;0.87;;;24.90;96.60;;;;;;4974432;28;20388;-59
2023/08/09 13:35:21;;;;;;;0.90;0.77;;;24.80;96.70;;;;;;4973835;28;20591;-58
2023/08/09 13:37:46;;;;;;;1.03;1.03;;;24.80;96.30;;;;;;4978113;28;20380;-59
2023/08/09 13:40:12;;;;;;;1.20;1.10;;;24.80;96.80;;;;;;4977944;28;20174;-59
2023/08/09 13:42:38;;;;;;;1.97;1.00;;;24.90;97.10;;;;;;4978076;28;20197;-59
2023/08/09 13:45:05;;;;;;;0.80;0.77;;;25.00;97.00;;;;;;4977619;28;20669;-60
2023/08/09 13:47:31;;;;;;;1.17;1.07;;;24.90;96.90;;;;;;4978022;28;20929;-60
2023/08/09 13:49:58;;;;;;;1.60;1.50;;;24.80;96.70;;;;;;4977873;28;20410;-60
2023/08/09 13:52:24;;;;;;;1.00;1.00;;;24.90;96.80;;;;;;4978086;28;20412;-59
2023/08/09 13:54:51;;;;;;;0.93;0.93;;;24.80;96.80;;;;;;4977375;28;20481;-60
2023/08/09 13:57:17;;;;;;;1.77;1.40;;;24.80;97.10;;;;;;4978001;28;20479;-60
2023/08/09 13:59:43;;;;;;;1.17;1.07;;;24.80;97.10;;;;;;4977630;28;20394;-60
2023/08/09 14:02:09;;;;;;;1.20;1.10;;;24.80;97.00;;;;;;4977880;28;20497;-59
2023/08/09 14:04:34;;;;;;;1.60;0.80;;;24.80;97.20;;;;;;4977122;28;20487;-60
2023/08/09 14:07:02;;;;;;;0.80;0.80;;;24.80;97.20;;;;;;4977524;28;20221;-60
2023/08/09 14:09:28;;;;;;;0.70;0.70;;;24.90;97.10;;;;;;4977584;28;20196;-60
2023/08/09 14:11:54;;;;;;;1.77;1.03;;;24.80;96.60;;;;;;4977465;28;20425;-60
2023/08/09 14:14:19;;;;;;;1.30;1.20;;;24.70;96.60;;;;;;4976905;28;20168;-60
2023/08/09 14:16:45;;;;;;;2.47;1.07;;;24.50;97.00;;;;;;4977623;28;20180;-60
2023/08/09 14:19:12;;;;;;;1.83;1.50;;;24.50;97.50;;;;;;4977358;28;20209;-60
2023/08/09 14:21:38;;;;;;;1.20;1.20;;;24.40;97.60;;;;;;4977493;28;20535;-60
2023/08/09 14:24:05;;;;;;;1.10;1.10;;;24.20;97.70;;;;;;4977176;28;20382;-60
2023/08/09 14:26:31;;;;;;;0.80;0.80;;;24.20;97.40;;;;;;4977348;28;20467;-60
2023/08/09 14:28:57;;;;;;;0.90;0.90;;;24.00;97.10;;;;;;4977249;28;20940;-60
2023/08/09 14:31:22;;;;;;;1.10;1.10;;;24.00;97.40;;;;;;4977038;28;20188;-60
2023/08/09 14:33:49;;;;;;;1.17;1.10;;;23.90;97.20;;;;;;4976977;28;20187;-60
2023/08/09 14:36:15;;;;;;;0.90;0.90;;;23.90;97.20;;;;;;4977185;28;20200;-60
2023/08/09 14:38:41;;;;;;;1.03;0.93;;;23.90;97.00;;;;;;4977174;28;20437;-59
2023/08/09 14:41:07;;;;;;;1.10;1.00;;;23.80;96.70;;;;;;4977152;28;20945;-60
2023/08/09 14:43:32;;;;;;;0.73;0.73;;;23.70;96.60;;;;;;4976849;28;20420;-61
2023/08/09 14:45:58;;;;;;;0.90;0.90;;;23.60;96.70;;;;;;4976781;28;20682;-59
2023/08/09 14:48:23;;;;;;;1.00;1.00;;;23.60;96.90;;;;;;4976417;28;20176;-58
2023/08/09 14:50:49;;;;;;;1.30;1.20;;;23.60;97.10;;;;;;4977059;28;20176;-59
2023/08/09 14:53:14;;;;;;;0.90;0.90;;;23.60;97.40;;;;;;4976818;28;20180;-60
2023/08/09 14:55:42;;;;;;;0.90;0.90;;;23.60;97.20;;;;;;4976492;28;20192;-60
2023/08/09 14:58:08;;;;;;;5.60;1.10;;;23.60;97.40;;;;;;4976888;28;20199;-60
2023/08/09 15:00:34;;;;;;;1.00;1.00;;;23.60;97.60;;;;;;4976726;28;20451;-60
2023/08/09 15:03:00;;;;;;;1.00;1.00;;;23.60;97.90;;;;;;4976679;28;20394;-60
2023/08/09 15:05:26;;;;;;;0.80;0.80;;;23.60;97.60;;;;;;4976028;28;20501;-62
2023/08/09 15:07:53;;;;;;;0.97;0.97;;;23.50;97.90;;;;;;4976642;28;20553;-60
2023/08/09 15:10:18;;;;;;;1.53;1.40;;;23.40;98.40;;;;;;4976366;28;20195;-60
2023/08/09 15:12:44;;;;;;;0.80;0.80;;;23.40;98.50;;;;;;4976508;28;20422;-60
2023/08/09 15:15:10;;;;;;;0.80;0.80;;;23.30;98.80;;;;;;4975886;28;20228;-60
2023/08/09 15:17:36;;;;;;;0.80;0.80;;;23.30;98.70;;;;;;4976316;28;20672;-60
2023/08/09 15:20:02;;;;;;;0.80;0.80;;;23.10;98.40;;;;;;4976255;28;20469;-60
2023/08/09 15:22:28;;;;;;;0.80;0.80;;;23.10;98.20;;;;;;4976333;28;21171;-60
2023/08/09 15:24:58;;;;;;;1.33;0.80;;;23.10;98.40;;;;;;4976092;28;20435;-58
2023/08/09 15:27:24;;;;;;;1.20;1.10;;;23.10;98.50;;;;;;4976115;28;20208;-59
2023/08/09 15:29:50;;;;;;;0.80;0.80;;;23.20;98.60;;;;;;4976172;28;20419;-60
2023/08/09 15:32:15;;;;;;;0.87;0.87;;;23.10;98.70;;;;;;4976201;28;20979;-60
2023/08/09 15:34:42;;;;;;;1.00;1.00;;;23.10;98.60;;;;;;4975856;28;20199;-59
2023/08/09 15:37:07;;;;;;;1.23;1.00;;;23.10;98.60;;;;;;4976137;28;20574;-60
2023/08/09 15:39:33;;;;;;;0.60;0.60;;;23.10;99.10;;;;;;4975981;28;20387;-61
2023/08/09 15:41:59;;;;;;;0.80;0.80;;;23.20;98.80;;;;;;4975975;28;20187;-60
2023/08/09 15:44:24;;;;;;;1.10;1.10;;;23.20;98.80;;;;;;4975492;28;20188;-61
2023/08/09 15:46:50;;;;;;;0.70;0.70;;;23.20;98.30;;;;;;4975862;28;21000;-60
2023/08/09 15:49:16;;;;;;;0.70;0.70;;;23.20;98.50;;;;;;4975768;28;20594;-59
2023/08/09 15:51:41;;;;;;;0.90;0.90;;;23.20;98.50;;;;;;4975725;28;20172;-60
2023/08/09 15:54:08;;;;;;;1.00;0.93;;;23.30;98.60;;;;;;4975482;28;20187;-59
2023/08/09 15:56:33;;;;;;;0.60;0.60;;;23.40;98.50;;;;;;4975730;28;20208;-61
2023/08/09 15:58:59;;;;;;;0.70;0.70;;;23.50;98.60;;;;;;4975245;28;20463;-60
2023/08/09 16:01:25;;;;;;;1.00;0.90;;;23.50;98.60;;;;;;4975260;28;20184;-61
2023/08/09 16:03:50;;;;;;;0.90;0.90;;;23.60;98.00;;;;;;4975348;28;20646;-61
2023/08/09 16:06:16;;;;;;;1.00;0.67;;;23.60;97.80;;;;;;4975284;28;20239;-61
2023/08/09 16:08:42;;;;;;;0.70;0.70;;;23.60;97.60;;;;;;4975463;28;20177;-61
2023/08/09 16:11:09;;;;;;;0.90;0.90;;;23.60;97.70;;;;;;4975464;28;20180;-60
2023/08/09 16:13:34;;;;;;;0.77;0.77;;;23.60;97.80;;;;;;4975129;28;20394;-59
2023/08/09 16:16:02;;;;;;;0.90;0.90;;;23.50;98.50;;;;;;4975215;28;20402;-58
2023/08/09 16:18:27;;;;;;;0.70;0.70;;;23.40;98.20;;;;;;4975512;28;20453;-59
2023/08/09 16:20:53;;;;;;;0.73;0.73;;;23.40;98.20;;;;;;4975455;28;20980;-60
2023/08/09 16:23:19;;;;;;;0.93;0.93;;;23.40;98.50;;;;;;4974982;28;20169;-61
2023/08/09 16:25:44;;;;;;;0.80;0.80;;;23.30;98.80;;;;;;4975029;28;20196;-61
2023/08/09 16:28:10;;;;;;;0.83;0.83;;;23.30;98.50;;;;;;4975187;28;20284;-61
2023/08/09 16:30:36;;;;;;;1.00;1.00;;;23.30;98.70;;;;;;4974882;28;20642;-59
2023/08/09 16:33:02;;;;;;;1.00;0.90;;;23.30;98.70;;;;;;4975195;28;20567;-59
2023/08/09 16:35:30;;;;;;;0.93;0.90;;;23.20;98.50;;;;;;4974604;28;20439;-60
2023/08/09 16:37:57;;;;;;;1.80;1.10;;;23.20;98.60;;;;;;4975142;28;20172;-61
2023/08/09 16:40:22;;;;;;;0.70;0.70;;;23.10;98.50;;;;;;4975013;28;20975;-61
2023/08/09 16:42:48;;;;;;;0.90;0.90;;;23.20;99.00;;;;;;4975004;28;20506;-60
2023/08/09 16:45:14;;;;;;;1.07;1.07;;;23.20;99.00;;;;;;4974646;28;20327;-61
2023/08/09 16:47:40;;;;;;;0.80;0.80;;;23.20;98.70;;;;;;4957385;28;20315;-60
2023/08/09 16:50:07;;;;;;;0.90;0.90;;;23.30;98.80;;;;;;4974925;28;20255;-60
2023/08/09 16:52:33;;;;;;;0.70;0.70;;;23.30;98.80;;;;;;4974832;28;20485;-59